createdAt,value
2023-03-08T00:02:20.136Z,99398.28
2023-03-08T00:09:55.637Z,99410.47
2023-03-08T00:17:29.569Z,99414.63
2023-03-08T00:25:05.551Z,99416.22
2023-03-08T00:32:39.614Z,99421.31
2023-03-08T00:40:16.173Z,99423.75
2023-03-08T00:47:50.083Z,99436.94
2023-03-08T00:55:25.206Z,99431.56
2023-03-08T01:02:59.470Z,99437.59
2023-03-08T01:10:34.576Z,99455.94
2023-03-08T01:18:08.098Z,99454.78
2023-03-08T01:25:43.433Z,99459.84
2023-03-08T01:33:17.291Z,99464.91
2023-03-08T01:40:56.891Z,99463.84
2023-03-08T01:48:35.284Z,99466.41
2023-03-08T01:56:14.281Z,99466.34
2023-03-08T02:03:49.268Z,99472.28
2023-03-08T02:11:25.756Z,99470.31
2023-03-08T02:19:01.342Z,99471.91
2023-03-08T02:26:38.600Z,99470.03
2023-03-08T02:34:12.589Z,99477.88
2023-03-08T02:41:48.128Z,99476.91
2023-03-08T02:49:22.004Z,99490.78
2023-03-08T02:56:57.399Z,99483.66
2023-03-08T03:04:32.137Z,99474.81
2023-03-08T03:12:08.038Z,99486.34
2023-03-08T03:19:41.778Z,99482.66
2023-03-08T03:27:16.956Z,99492.38
2023-03-08T03:34:50.873Z,99496.63
2023-03-08T03:42:26.189Z,99510.66
2023-03-08T03:50:00.366Z,99523.03
2023-03-08T03:57:35.649Z,99516.00
2023-03-08T04:05:09.982Z,99533.47
2023-03-08T04:12:45.270Z,99529.13
2023-03-08T04:20:19.418Z,99538.69
2023-03-08T04:27:54.539Z,99546.81
2023-03-08T04:35:28.107Z,99528.50
2023-03-08T04:43:03.533Z,99524.13
2023-03-08T04:50:39.237Z,99516.13
2023-03-08T04:58:14.973Z,99521.16
2023-03-08T05:05:50.573Z,99520.03
2023-03-08T05:13:26.135Z,99518.91
2023-03-08T05:21:01.963Z,99534.44
2023-03-08T05:28:38.262Z,99535.13
2023-03-08T05:36:13.213Z,99540.19
2023-03-08T05:43:48.819Z,99551.47
2023-03-08T05:51:23.213Z,99545.22
2023-03-08T05:58:58.605Z,99549.47
2023-03-08T06:06:34.104Z,99554.72
2023-03-08T06:14:12.179Z,99551.19
2023-03-08T06:21:46.853Z,99559.13
2023-03-08T06:29:22.523Z,99566.25
2023-03-08T06:36:59.763Z,99570.88
2023-03-08T06:44:35.701Z,99578.13
2023-03-08T06:52:16.307Z,99565.06
2023-03-08T06:59:51.391Z,99563.63
2023-03-08T07:07:25.544Z,99548.22
2023-03-08T07:15:01.064Z,99559.97
2023-03-08T07:22:35.074Z,99555.09
2023-03-08T07:30:12.500Z,99554.38
2023-03-08T07:37:47.385Z,99563.72
2023-03-08T07:53:14.701Z,99571.13
2023-03-08T08:00:50.104Z,99567.53
2023-03-08T08:08:24.237Z,99561.97
2023-03-08T08:16:03.863Z,99563.66
2023-03-08T08:23:38.255Z,99559.88
2023-03-08T08:31:15.831Z,99562.63
2023-03-08T08:38:50.936Z,99546.63
2023-03-08T08:46:28.186Z,99533.03
2023-03-08T08:54:02.350Z,99524.84
2023-03-08T09:01:40.149Z,99513.91
2023-03-08T09:09:14.328Z,99518.50
2023-03-08T09:16:52.524Z,99507.75
2023-03-08T09:24:26.591Z,99514.13
2023-03-08T09:32:02.126Z,99506.13
2023-03-08T09:39:36.298Z,99498.25
2023-03-08T09:47:19.258Z,99487.78
2023-03-08T09:54:54.568Z,99482.28
2023-03-08T10:02:40.562Z,99480.78
2023-03-08T10:10:23.946Z,99455.19
2023-03-08T10:18:04.113Z,99472.72
2023-03-08T10:25:38.496Z,99470.72
2023-03-08T10:33:15.790Z,99458.16
2023-03-08T10:40:49.928Z,99454.78
2023-03-08T10:48:25.758Z,99450.53
2023-03-08T11:11:54.265Z,99423.91
2023-03-08T11:19:40.225Z,99404.47
2023-03-08T11:27:26.843Z,99393.13
2023-03-08T11:35:14.048Z,99378.28
2023-03-08T11:42:55.989Z,99359.00
2023-03-08T11:58:32.328Z,99341.38
2023-03-08T12:06:27.945Z,99329.13
2023-03-08T12:14:07.933Z,99326.53
2023-03-08T12:21:50.897Z,99317.78
2023-03-08T12:29:31.440Z,99305.47
2023-03-08T12:37:21.056Z,99304.66
2023-03-08T12:44:55.019Z,99296.88
2023-03-08T12:52:35.002Z,99295.09
2023-03-08T13:00:26.996Z,99296.84
2023-03-08T13:08:21.332Z,99287.09
2023-03-08T13:16:06.595Z,99290.63
2023-03-08T13:23:48.163Z,99293.16
2023-03-08T13:31:25.338Z,99306.19
2023-03-08T13:39:04.170Z,99298.88
2023-03-08T13:54:38.706Z,99288.09
2023-03-08T14:02:21.030Z,99281.59
2023-03-08T14:09:56.843Z,99295.84
2023-03-08T14:17:34.026Z,99296.66
2023-03-08T14:25:27.203Z,99285.69
2023-03-08T14:33:04.442Z,99273.19
2023-03-08T14:40:48.407Z,99265.16
2023-03-08T14:48:29.741Z,99254.78
2023-03-08T14:56:08.704Z,99261.09
2023-03-08T15:03:42.638Z,99255.81
2023-03-08T15:11:18.835Z,99260.28
2023-03-08T15:18:52.864Z,99240.91
2023-03-08T15:26:31.661Z,99242.41
2023-03-08T15:34:05.837Z,99225.53
2023-03-08T15:41:41.552Z,99222.75
2023-03-08T15:49:15.607Z,99211.16
2023-03-08T15:56:51.040Z,99205.06
2023-03-08T16:04:25.235Z,99205.06
2023-03-08T16:12:00.501Z,99204.34
2023-03-08T16:19:35.800Z,99197.06
2023-03-08T16:35:03.234Z,99196.13
2023-03-08T16:42:38.555Z,99188.25
2023-03-08T16:50:14.149Z,99176.00
2023-03-08T16:57:50.023Z,99179.44
2023-03-08T17:05:23.882Z,99174.03
2023-03-08T17:12:59.409Z,99192.34
2023-03-08T17:20:33.413Z,99177.34
2023-03-08T17:28:10.443Z,99180.75
2023-03-08T17:35:44.744Z,99178.97
2023-03-08T17:43:20.226Z,99174.22
2023-03-08T17:50:54.332Z,99169.13
2023-03-08T17:58:30.175Z,99167.22
2023-03-08T18:06:04.681Z,99166.28
2023-03-08T18:13:40.787Z,99170.66
2023-03-08T18:37:03.244Z,99200.22
2023-03-08T18:44:40.126Z,99191.41
2023-03-08T18:52:14.213Z,99186.97
2023-03-08T18:59:49.740Z,99188.03
2023-03-08T19:15:16.516Z,99158.91
2023-03-08T19:22:51.216Z,99154.47
2023-03-08T19:30:28.597Z,99164.03
2023-03-08T19:38:02.599Z,99160.47
2023-03-08T19:45:38.184Z,99156.03
2023-03-08T19:53:12.169Z,99152.81
2023-03-08T20:00:48.480Z,99141.22
2023-03-08T20:08:22.400Z,99144.75
2023-03-08T20:15:58.120Z,99143.13
2023-03-08T20:23:32.727Z,99152.78
2023-03-08T20:31:11.159Z,99141.69
2023-03-08T20:54:29.025Z,99149.22
2023-03-08T21:02:04.554Z,99141.38
2023-03-08T21:09:38.660Z,99133.38
2023-03-08T21:17:13.930Z,99133.38
2023-03-08T21:24:47.991Z,99131.72
2023-03-08T21:32:23.218Z,99127.28
2023-03-08T21:39:57.194Z,99136.78
2023-03-08T21:47:32.444Z,99129.78
2023-03-08T21:55:07.299Z,99142.97
2023-03-08T22:02:45.106Z,99132.50
2023-03-08T22:10:20.596Z,99129.91
2023-03-08T22:25:47.434Z,99115.25
2023-03-08T22:33:23.009Z,99127.44
2023-03-08T22:40:56.952Z,99116.03
2023-03-08T22:48:32.833Z,99104.50
2023-03-08T22:56:07.620Z,99098.38
2023-03-08T23:03:43.552Z,99080.03
2023-03-08T23:11:18.419Z,99076.47
2023-03-08T23:18:54.520Z,99065.03
2023-03-08T23:26:29.752Z,99059.75
2023-03-08T23:34:06.722Z,99066.88
2023-03-08T23:41:41.770Z,99012.50
2023-03-08T23:49:17.588Z,99035.31
2023-03-08T23:56:51.495Z,99049.38
